Time;durP1;ratioP1;P1;durP2;ratioP2;P2;SDS_P1;SDS_P2;PMS_P1;PMS_P2;Temp;Humidity;BMP_temperature;BMP_pressure;BME280_temperature;BME280_humidity;BME280_pressure;Samples;Min_cycle;Max_cycle;Signal;HPM_P1;HPM_P2
2023/01/17 00:00:56;;;;;;;;;;;3.40;94.20;;;;;;5056642;28;19989;-89
2023/01/17 00:03:21;;;;;;;;;;;3.40;94.70;;;;;;5075026;28;19989;-89
2023/01/17 00:09:51;;;;;;;;;;;3.70;95.00;;;;;;5074898;28;19947;-88
2023/01/17 00:11:19;;;;;;;;;;;3.70;95.00;;;;;;5074404;28;20040;-89
2023/01/17 00:13:45;;;;;;;;;;;3.70;94.80;;;;;;5074684;28;20019;-89
2023/01/17 00:16:10;;;;;;;;;;;3.60;94.90;;;;;;5074658;28;20026;-89
2023/01/17 00:18:36;;;;;;;;;;;3.70;95.10;;;;;;5074720;28;19962;-89
2023/01/17 00:26:30;;;;;;;;;;;3.80;95.50;;;;;;5074792;28;19999;-89
2023/01/17 01:35:48;;;;;;;;;;;5.10;92.10;;;;;;5093784;28;19946;-89
2023/01/17 01:38:14;;;;;;;;;;;5.10;92.00;;;;;;5093591;28;19958;-89
2023/01/17 01:40:43;;;;;;;;;;;5.10;91.80;;;;;;5093404;28;20005;-89
2023/01/17 01:43:09;;;;;;;;;;;5.10;91.60;;;;;;5093630;28;19942;-88
2023/01/17 01:45:35;;;;;;;;;;;5.20;91.50;;;;;;5093263;28;19967;-88
2023/01/17 01:48:02;;;;;;;;;;;5.10;91.50;;;;;;5093420;28;20415;-89
2023/01/17 01:50:29;;;;;;;;;;;5.00;91.60;;;;;;5092897;28;19940;-88
2023/01/17 01:52:57;;;;;;;;;;;5.10;91.80;;;;;;5083888;28;20349;-89
2023/01/17 01:55:24;;;;;;;;;;;5.20;91.70;;;;;;5072620;28;19947;-90
2023/01/17 01:57:51;;;;;;;;;;;5.10;91.70;;;;;;5055091;28;19938;-89
2023/01/17 02:00:20;;;;;;;;;;;5.10;91.70;;;;;;5072724;28;19949;-89
2023/01/17 02:02:47;;;;;;;;;;;5.00;91.80;;;;;;5073138;28;19936;-89
2023/01/17 02:05:13;;;;;;;;;;;4.90;92.00;;;;;;5072622;28;19989;-88
2023/01/17 02:08:02;;;;;;;;;;;4.90;92.10;;;;;;5072737;28;19998;-89
2023/01/17 02:10:31;;;;;;;;;;;4.90;92.20;;;;;;5061544;28;20033;-88
2023/01/17 02:12:56;;;;;;;;;;;4.90;92.50;;;;;;5072682;28;19978;-89
2023/01/17 02:15:27;;;;;;;;;;;4.90;92.60;;;;;;5054492;28;19941;-88
2023/01/17 02:18:03;;;;;;;;;;;4.80;92.60;;;;;;5072722;28;20109;-88
2023/01/17 02:20:47;;;;;;;;;;;4.80;92.70;;;;;;5072504;28;19949;-89
2023/01/17 02:23:31;;;;;;;;;;;5.00;92.80;;;;;;5072665;28;20040;-89
2023/01/17 02:26:14;;;;;;;;;;;5.00;92.50;;;;;;5056139;28;20421;-89
2023/01/17 02:28:48;;;;;;;;;;;5.20;92.30;;;;;;5070354;28;20004;-89
2023/01/17 02:31:24;;;;;;;;;;;5.30;91.80;;;;;;5075783;28;20400;-89
2023/01/17 02:34:07;;;;;;;;;;;5.30;91.50;;;;;;5076699;28;19951;-88
2023/01/17 02:36:39;;;;;;;;;;;5.30;91.40;;;;;;5076648;28;19947;-88
2023/01/17 02:39:12;;;;;;;;;;;5.40;91.40;;;;;;5058732;28;19964;-89
2023/01/17 02:41:39;;;;;;;;;;;5.40;91.50;;;;;;5076334;28;19993;-89
2023/01/17 02:44:06;;;;;;;;;;;5.20;91.90;;;;;;5076681;28;19944;-89
2023/01/17 02:46:32;;;;;;;;;;;5.00;92.20;;;;;;5076464;28;20337;-89
2023/01/17 02:48:59;;;;;;;;;;;5.00;92.60;;;;;;5058551;28;20040;-89
2023/01/17 02:51:37;;;;;;;;;;;5.10;92.50;;;;;;5076114;28;19946;-89
2023/01/17 02:54:06;;;;;;;;;;;5.10;92.40;;;;;;5076277;28;19978;-89
2023/01/17 02:56:37;;;;;;;;;;;5.10;92.50;;;;;;5076378;28;19945;-89
2023/01/17 02:59:12;;;;;;;;;;;5.10;92.80;;;;;;5076339;28;19980;-89
2023/01/17 03:02:03;;;;;;;;;;;5.00;92.70;;;;;;5075776;28;19980;-89
2023/01/17 03:04:48;;;;;;;;;;;4.80;93.00;;;;;;5076310;28;19983;-89
2023/01/17 03:07:16;;;;;;;;;;;4.70;93.50;;;;;;5061367;28;19943;-89
2023/01/17 03:09:44;;;;;;;;;;;4.70;93.80;;;;;;5075724;28;19947;-89
2023/01/17 03:12:10;;;;;;;;;;;4.80;93.70;;;;;;5075747;28;19949;-88
2023/01/17 03:14:36;;;;;;;;;;;4.80;93.70;;;;;;5076477;28;20321;-89
2023/01/17 03:17:01;;;;;;;;;;;4.90;93.80;;;;;;5075874;28;20026;-89
2023/01/17 03:19:27;;;;;;;;;;;5.00;93.80;;;;;;5075912;28;19985;-89
2023/01/17 03:21:52;;;;;;;;;;;5.00;93.70;;;;;;5075589;28;19943;-88
2023/01/17 03:24:18;;;;;;;;;;;4.90;93.50;;;;;;5075809;28;20471;-88
2023/01/17 03:26:43;;;;;;;;;;;4.80;93.70;;;;;;5075898;28;19946;-88
2023/01/17 03:29:10;;;;;;;;;;;5.00;93.60;;;;;;5075831;28;20043;-89
2023/01/17 03:31:35;;;;;;;;;;;5.10;92.60;;;;;;5075462;28;19955;-88
2023/01/17 03:34:01;;;;;;;;;;;5.00;92.30;;;;;;5075655;28;19996;-89
2023/01/17 03:36:26;;;;;;;;;;;4.90;92.40;;;;;;5074875;28;20084;-88
2023/01/17 03:38:52;;;;;;;;;;;4.80;92.20;;;;;;5075622;28;19962;-89
2023/01/17 03:41:17;;;;;;;;;;;4.60;92.60;;;;;;5057265;28;19947;-89
2023/01/17 03:43:43;;;;;;;;;;;4.50;93.00;;;;;;5075272;28;19948;-89
2023/01/17 03:46:29;;;;;;;;;;;4.50;93.20;;;;;;5075109;28;19978;-89
2023/01/17 03:48:54;;;;;;;;;;;4.40;93.20;;;;;;5074814;28;19949;-89
2023/01/17 03:51:20;;;;;;;;;;;4.40;93.00;;;;;;5075049;28;19955;-88
2023/01/17 03:53:46;;;;;;;;;;;4.20;93.00;;;;;;5075029;28;19960;-88
2023/01/17 03:56:11;;;;;;;;;;;4.20;93.20;;;;;;5075033;28;19932;-89
2023/01/17 03:58:37;;;;;;;;;;;4.20;93.70;;;;;;5074986;28;20040;-89
2023/01/17 04:01:03;;;;;;;;;;;4.20;93.90;;;;;;5075048;28;19991;-88
2023/01/17 04:03:28;;;;;;;;;;;4.30;94.00;;;;;;5075048;28;20408;-89
2023/01/17 04:05:54;;;;;;;;;;;4.30;94.00;;;;;;5075167;28;20394;-89
2023/01/17 04:08:20;;;;;;;;;;;4.20;93.90;;;;;;5074655;28;19954;-88
2023/01/17 04:10:45;;;;;;;;;;;4.00;93.80;;;;;;5074996;28;19945;-88
2023/01/17 04:13:12;;;;;;;;;;;4.00;94.00;;;;;;5074720;28;20344;-88
2023/01/17 04:15:38;;;;;;;;;;;4.00;94.10;;;;;;5074985;28;20482;-88
2023/01/17 04:18:04;;;;;;;;;;;4.00;94.30;;;;;;5056388;28;19960;-88
2023/01/17 04:20:31;;;;;;;;;;;4.10;94.60;;;;;;5054876;28;20027;-88
2023/01/17 04:22:57;;;;;;;;;;;4.00;94.50;;;;;;5070421;28;20093;-88
2023/01/17 04:25:24;;;;;;;;;;;4.10;94.80;;;;;;5074737;28;20352;-88
2023/01/17 04:27:50;;;;;;;;;;;4.20;94.90;;;;;;5074345;28;19973;-88
2023/01/17 04:30:16;;;;;;;;;;;4.20;94.50;;;;;;5072965;28;19949;-89
2023/01/17 04:32:41;;;;;;;;;;;4.10;94.60;;;;;;5074424;28;19950;-89
2023/01/17 04:35:08;;;;;;;;;;;4.20;94.70;;;;;;5074199;28;19948;-89
2023/01/17 04:37:34;;;;;;;;;;;4.30;94.90;;;;;;5073889;28;19949;-89
2023/01/17 04:39:59;;;;;;;;;;;4.40;94.90;;;;;;5073809;28;20330;-89
2023/01/17 04:42:25;;;;;;;;;;;4.50;95.00;;;;;;5074244;28;20044;-89
2023/01/17 04:44:50;;;;;;;;;;;4.50;94.90;;;;;;5074185;28;19996;-89
2023/01/17 04:47:16;;;;;;;;;;;4.50;95.00;;;;;;5074358;28;19937;-89
2023/01/17 04:49:41;;;;;;;;;;;4.70;95.00;;;;;;5072991;28;19946;-88
2023/01/17 04:52:07;;;;;;;;;;;5.10;94.80;;;;;;5073948;28;19965;-88
2023/01/17 04:54:32;;;;;;;;;;;5.20;94.00;;;;;;5073847;28;20307;-89
2023/01/17 04:56:58;;;;;;;;;;;5.20;93.50;;;;;;5074132;28;19939;-89
2023/01/17 04:59:23;;;;;;;;;;;5.30;93.20;;;;;;5072688;28;19947;-88
2023/01/17 05:01:49;;;;;;;;;;;5.30;92.70;;;;;;5073094;28;19987;-88
2023/01/17 05:04:14;;;;;;;;;;;5.30;91.80;;;;;;5072497;28;19947;-88
2023/01/17 05:06:40;;;;;;;;;;;5.20;91.70;;;;;;5071996;28;19948;-89
2023/01/17 05:09:05;;;;;;;;;;;5.20;92.00;;;;;;5073397;28;20046;-89
2023/01/17 05:11:31;;;;;;;;;;;5.00;92.20;;;;;;5065658;28;19951;-89
2023/01/17 05:13:57;;;;;;;;;;;4.90;92.50;;;;;;5072538;28;20453;-89
2023/01/17 05:16:22;;;;;;;;;;;5.00;92.70;;;;;;5073358;28;20334;-89
2023/01/17 05:18:52;;;;;;;;;;;5.20;92.60;;;;;;5073179;28;19965;-88
2023/01/17 05:21:18;;;;;;;;;;;5.40;92.10;;;;;;5073663;28;19943;-89
2023/01/17 05:23:43;;;;;;;;;;;5.50;91.50;;;;;;5073336;28;19955;-88
2023/01/17 05:26:09;;;;;;;;;;;5.50;90.90;;;;;;5073481;28;19994;-89
2023/01/17 05:28:34;;;;;;;;;;;5.30;91.20;;;;;;5073311;28;19995;-89
2023/01/17 05:31:00;;;;;;;;;;;5.10;91.40;;;;;;5055589;28;20007;-88
2023/01/17 05:33:25;;;;;;;;;;;5.10;91.70;;;;;;5073305;28;19949;-88
2023/01/17 05:35:51;;;;;;;;;;;5.00;91.90;;;;;;5073247;28;19949;-88
2023/01/17 05:38:17;;;;;;;;;;;4.90;92.20;;;;;;5054962;28;19959;-88
2023/01/17 05:40:42;;;;;;;;;;;4.80;92.40;;;;;;5073323;28;20005;-88
2023/01/17 05:43:08;;;;;;;;;;;4.80;92.90;;;;;;5073163;28;19962;-88
2023/01/17 05:45:34;;;;;;;;;;;4.80;93.00;;;;;;5073109;28;20029;-89
2023/01/17 05:48:00;;;;;;;;;;;4.70;93.20;;;;;;5073140;28;19989;-89
2023/01/17 05:50:27;;;;;;;;;;;4.70;93.30;;;;;;5066241;28;19944;-88
2023/01/17 05:53:03;;;;;;;;;;;4.70;93.40;;;;;;5072991;28;19966;-88
2023/01/17 05:55:29;;;;;;;;;;;4.70;93.40;;;;;;5072601;28;20486;-88
2023/01/17 05:57:55;;;;;;;;;;;4.70;93.60;;;;;;5073103;28;19964;-90
2023/01/17 06:00:21;;;;;;;;;;;4.80;93.70;;;;;;5072644;28;20435;-89
2023/01/17 06:02:47;;;;;;;;;;;4.70;93.60;;;;;;5073120;28;20026;-89
2023/01/17 06:05:13;;;;;;;;;;;4.70;93.60;;;;;;5073005;28;20410;-88
2023/01/17 06:07:38;;;;;;;;;;;4.90;93.70;;;;;;5072661;28;19947;-89
2023/01/17 06:10:04;;;;;;;;;;;5.00;93.50;;;;;;5072637;28;19952;-88
2023/01/17 06:12:30;;;;;;;;;;;5.10;93.60;;;;;;5072651;28;19943;-89
2023/01/17 06:14:55;;;;;;;;;;;5.10;93.60;;;;;;5073069;28;19940;-89
2023/01/17 06:17:21;;;;;;;;;;;5.20;92.90;;;;;;5072814;28;20374;-89
2023/01/17 06:19:46;;;;;;;;;;;5.10;92.70;;;;;;5072543;28;19961;-89
2023/01/17 06:22:12;;;;;;;;;;;5.00;92.80;;;;;;5072287;28;19960;-88
2023/01/17 06:24:37;;;;;;;;;;;5.00;93.00;;;;;;5071838;28;19952;-89
2023/01/17 06:27:03;;;;;;;;;;;5.00;93.10;;;;;;5072130;28;19951;-89
2023/01/17 06:29:28;;;;;;;;;;;5.10;93.00;;;;;;5050150;28;19959;-89
2023/01/17 06:31:54;;;;;;;;;;;5.00;92.90;;;;;;5069838;28;20392;-89
2023/01/17 06:34:19;;;;;;;;;;;4.90;92.90;;;;;;5061387;28;19969;-89
2023/01/17 06:36:45;;;;;;;;;;;4.90;92.90;;;;;;5046553;28;19953;-89
2023/01/17 06:39:11;;;;;;;;;;;4.90;93.10;;;;;;5072074;28;20396;-88
2023/01/17 06:41:36;;;;;;;;;;;5.00;93.30;;;;;;5071980;28;19939;-88
2023/01/17 06:44:02;;;;;;;;;;;5.10;93.10;;;;;;5072010;28;19991;-88
2023/01/17 06:46:28;;;;;;;;;;;5.30;92.70;;;;;;5071825;28;20435;-88
2023/01/17 06:48:53;;;;;;;;;;;5.10;92.50;;;;;;5072344;28;19952;-88
2023/01/17 06:51:19;;;;;;;;;;;5.00;92.70;;;;;;5072028;28;20301;-89
2023/01/17 06:53:46;;;;;;;;;;;5.00;92.90;;;;;;5072753;28;20435;-88
2023/01/17 06:56:12;;;;;;;;;;;4.90;93.10;;;;;;5071466;28;19941;-88
2023/01/17 06:58:37;;;;;;;;;;;4.90;93.30;;;;;;5070897;28;20416;-88
2023/01/17 07:01:10;;;;;;;;;;;4.90;93.30;;;;;;5067859;28;20398;-87
2023/01/17 07:03:35;;;;;;;;;;;4.90;93.20;;;;;;5046024;28;19948;-87
2023/01/17 07:06:01;;;;;;;;;;;4.90;93.30;;;;;;5059822;28;19939;-87
2023/01/17 07:08:27;;;;;;;;;;;4.90;93.20;;;;;;5058800;28;19956;-88
2023/01/17 07:10:57;;;;;;;;;;;4.80;93.30;;;;;;5061262;28;19949;-87
2023/01/17 07:13:22;;;;;;;;;;;4.80;93.40;;;;;;5070479;28;20010;-87
2023/01/17 07:15:48;;;;;;;;;;;4.70;93.40;;;;;;5068984;28;19985;-87
2023/01/17 07:18:13;;;;;;;;;;;4.70;93.40;;;;;;5069828;28;20068;-87
2023/01/17 07:20:42;;;;;;;;;;;4.70;93.60;;;;;;5069076;28;19989;-87
2023/01/17 07:23:08;;;;;;;;;;;4.80;93.80;;;;;;5072656;28;19946;-87
2023/01/17 07:25:33;;;;;;;;;;;4.90;93.70;;;;;;5074389;28;20480;-88
2023/01/17 07:27:59;;;;;;;;;;;4.90;93.50;;;;;;5066013;28;20034;-87
2023/01/17 07:30:25;;;;;;;;;;;4.80;93.60;;;;;;5072919;28;20028;-87
2023/01/17 07:32:54;;;;;;;;;;;4.80;93.70;;;;;;5067490;28;19951;-87
2023/01/17 07:35:20;;;;;;;;;;;4.80;93.80;;;;;;5072800;28;20431;-87
2023/01/17 07:37:46;;;;;;;;;;;4.80;94.00;;;;;;5072005;28;19939;-88
2023/01/17 07:40:12;;;;;;;;;;;4.90;94.10;;;;;;5073370;28;19955;-87
2023/01/17 07:42:37;;;;;;;;;;;4.90;94.00;;;;;;5066140;28;19964;-88
2023/01/17 07:45:03;;;;;;;;;;;4.90;94.10;;;;;;5069444;28;20050;-88
2023/01/17 07:47:29;;;;;;;;;;;4.80;94.20;;;;;;5059489;28;19951;-87
2023/01/17 07:49:54;;;;;;;;;;;4.90;94.30;;;;;;5069736;28;19945;-87
2023/01/17 07:52:20;;;;;;;;;;;5.00;94.50;;;;;;5072523;28;20414;-87
2023/01/17 07:54:45;;;;;;;;;;;5.00;94.70;;;;;;5053845;28;20426;-88
2023/01/17 07:57:11;;;;;;;;;;;5.20;94.70;;;;;;5068715;28;19942;-87
2023/01/17 07:59:36;;;;;;;;;;;5.30;94.30;;;;;;5072398;28;19962;-87
2023/01/17 08:02:02;;;;;;;;;;;5.30;94.10;;;;;;5062189;28;19949;-87
2023/01/17 08:04:33;;;;;;;;;;;5.30;94.00;;;;;;5061331;28;19950;-87
2023/01/17 08:06:59;;;;;;;;;;;5.40;93.80;;;;;;5068369;28;19942;-87
2023/01/17 08:09:24;;;;;;;;;;;5.40;93.80;;;;;;5063449;28;20232;-87
2023/01/17 08:11:50;;;;;;;;;;;5.40;93.60;;;;;;5068523;28;20416;-88
2023/01/17 08:14:15;;;;;;;;;;;5.40;93.60;;;;;;5068336;28;20354;-87
2023/01/17 08:16:41;;;;;;;;;;;5.40;93.60;;;;;;5065065;28;19987;-87
2023/01/17 08:19:06;;;;;;;;;;;5.50;93.50;;;;;;5070961;28;19958;-87
2023/01/17 08:21:32;;;;;;;;;;;5.50;93.60;;;;;;5050790;28;20039;-87
2023/01/17 08:23:57;;;;;;;;;;;5.50;93.70;;;;;;5072211;28;19946;-87
2023/01/17 08:26:23;;;;;;;;;;;5.50;93.80;;;;;;5069383;28;20375;-87
2023/01/17 08:29:01;;;;;;;;;;;5.60;93.50;;;;;;5071815;28;20399;-87
2023/01/17 08:31:27;;;;;;;;;;;5.70;93.30;;;;;;5072992;28;19950;-87
2023/01/17 08:33:52;;;;;;;;;;;5.90;92.60;;;;;;5065935;28;19944;-87
2023/01/17 08:36:18;;;;;;;;;;;5.90;92.40;;;;;;5067496;28;19967;-87
2023/01/17 08:38:43;;;;;;;;;;;5.90;92.00;;;;;;5073240;28;19958;-87
2023/01/17 08:41:09;;;;;;;;;;;5.90;92.10;;;;;;5067668;28;19947;-88
2023/01/17 08:43:34;;;;;;;;;;;5.90;92.20;;;;;;5059752;28;19993;-87
2023/01/17 08:46:00;;;;;;;;;;;5.90;92.20;;;;;;5072557;28;20330;-87
2023/01/17 08:48:26;;;;;;;;;;;5.90;92.20;;;;;;5070166;28;19954;-87
2023/01/17 08:50:51;;;;;;;;;;;6.10;92.30;;;;;;5068030;28;20027;-87
2023/01/17 08:53:20;;;;;;;;;;;6.10;92.10;;;;;;5070885;28;20130;-87
2023/01/17 08:55:46;;;;;;;;;;;6.10;92.10;;;;;;5071794;28;19949;-87
2023/01/17 08:58:11;;;;;;;;;;;6.20;91.90;;;;;;5070563;28;19942;-87
2023/01/17 09:00:37;;;;;;;;;;;6.20;91.80;;;;;;5066467;28;19945;-87
2023/01/17 09:03:02;;;;;;;;;;;6.10;91.60;;;;;;5067185;28;19944;-87
2023/01/17 09:05:28;;;;;;;;;;;6.20;91.60;;;;;;5069475;28;19947;-87
2023/01/17 09:07:54;;;;;;;;;;;6.20;91.30;;;;;;5069109;28;20019;-87
2023/01/17 09:10:22;;;;;;;;;;;6.20;91.50;;;;;;5067280;28;20044;-88
2023/01/17 09:12:47;;;;;;;;;;;6.20;91.40;;;;;;5072327;22;19982;-87
2023/01/17 09:15:16;;;;;;;;;;;6.20;91.70;;;;;;5064069;28;19947;-87
2023/01/17 09:17:42;;;;;;;;;;;6.20;91.60;;;;;;5072457;28;19943;-87
2023/01/17 09:20:07;;;;;;;;;;;6.20;91.70;;;;;;5069111;28;19972;-87
2023/01/17 09:22:36;;;;;;;;;;;6.30;91.70;;;;;;5071822;28;20264;-87
2023/01/17 09:25:02;;;;;;;;;;;6.40;91.70;;;;;;5069370;28;19951;-87
2023/01/17 09:27:27;;;;;;;;;;;6.40;91.40;;;;;;5068887;28;19966;-88
2023/01/17 09:29:53;;;;;;;;;;;6.40;91.60;;;;;;5073299;28;20403;-87
2023/01/17 09:32:18;;;;;;;;;;;6.40;91.50;;;;;;5069827;28;19939;-88
2023/01/17 09:34:45;;;;;;;;;;;6.40;91.70;;;;;;5072128;28;19944;-87
2023/01/17 09:37:10;;;;;;;;;;;6.40;91.40;;;;;;5068685;28;19947;-87
2023/01/17 09:39:36;;;;;;;;;;;6.40;91.40;;;;;;5068931;28;20300;-87
2023/01/17 09:42:15;;;;;;;;;;;6.40;91.70;;;;;;5060097;28;20460;-87
2023/01/17 09:44:46;;;;;;;;;;;6.30;91.80;;;;;;5061314;28;19998;-88
2023/01/17 09:47:17;;;;;;;;;;;6.40;91.90;;;;;;5067148;28;19944;-87
2023/01/17 09:49:43;;;;;;;;;;;6.40;91.70;;;;;;5073051;28;19945;-88
2023/01/17 09:52:12;;;;;;;;;;;6.50;91.60;;;;;;5066337;28;20380;-87
2023/01/17 09:54:39;;;;;;;;;;;6.50;91.50;;;;;;5064794;28;19947;-88
2023/01/17 09:57:23;;;;;;;;;;;6.50;91.60;;;;;;5065629;28;19950;-87
2023/01/17 10:00:07;;;;;;;;;;;6.60;91.20;;;;;;5071687;28;19965;-87
2023/01/17 10:02:51;;;;;;;;;;;6.80;90.90;;;;;;5041484;28;19951;-87
2023/01/17 10:05:35;;;;;;;;;;;6.70;90.40;;;;;;5068181;28;20399;-87
2023/01/17 10:08:08;;;;;;;;;;;6.70;90.50;;;;;;5062770;28;20031;-87
2023/01/17 10:11:00;;;;;;;;;;;6.70;90.50;;;;;;5070578;28;20390;-87
2023/01/17 10:13:45;;;;;;;;;;;6.60;90.60;;;;;;5040629;28;19971;-87
2023/01/17 10:16:37;;;;;;;;;;;6.60;90.80;;;;;;5062756;28;20056;-88
2023/01/17 10:19:21;;;;;;;;;;;6.60;90.90;;;;;;5056660;28;19999;-87
2023/01/17 10:21:57;;;;;;;;;;;6.70;91.10;;;;;;5068606;28;19952;-87
2023/01/17 10:24:39;;;;;;;;;;;6.70;91.30;;;;;;5071137;28;19945;-88
2023/01/17 10:27:14;;;;;;;;;;;6.70;91.00;;;;;;5068178;28;20037;-87
2023/01/17 10:29:40;;;;;;;;;;;6.70;91.10;;;;;;5066456;28;19945;-87
2023/01/17 10:32:08;;;;;;;;;;;6.80;90.60;;;;;;5050621;28;19951;-87
2023/01/17 10:34:33;;;;;;;;;;;6.80;90.70;;;;;;5070047;28;20025;-87
2023/01/17 10:37:04;;;;;;;;;;;6.90;90.60;;;;;;5069645;28;19995;-88
2023/01/17 10:39:30;;;;;;;;;;;6.80;90.50;;;;;;5065910;28;19987;-88
2023/01/17 10:42:06;;;;;;;;;;;7.00;89.90;;;;;;5070606;28;19954;-87
2023/01/17 10:44:34;;;;;;;;;;;7.00;89.70;;;;;;5070856;28;19949;-87
2023/01/17 10:47:05;;;;;;;;;;;6.90;89.90;;;;;;5071636;28;20393;-87
2023/01/17 10:49:31;;;;;;;;;;;6.90;90.20;;;;;;5076282;28;19949;-87
2023/01/17 10:51:59;;;;;;;;;;;6.80;90.80;;;;;;5074271;28;19942;-88
2023/01/17 10:54:28;;;;;;;;;;;6.70;90.80;;;;;;5074065;28;19954;-87
2023/01/17 10:56:53;;;;;;;;;;;6.70;91.10;;;;;;5075236;28;19955;-87
2023/01/17 10:59:22;;;;;;;;;;;6.80;91.30;;;;;;5073757;28;19960;-87
2023/01/17 11:01:47;;;;;;;;;;;6.90;91.20;;;;;;5075418;28;20406;-87
2023/01/17 11:04:34;;;;;;;;;;;7.00;90.90;;;;;;5074369;28;19950;-87
2023/01/17 11:07:09;;;;;;;;;;;7.10;90.40;;;;;;5074736;28;19943;-88
2023/01/17 11:09:42;;;;;;;;;;;7.10;90.50;;;;;;5075994;28;19944;-87
2023/01/17 11:12:18;;;;;;;;;;;7.00;90.60;;;;;;5075990;28;20378;-87
2023/01/17 11:14:56;;;;;;;;;;;7.10;90.30;;;;;;5075830;28;19977;-87
2023/01/17 11:17:22;;;;;;;;;;;7.10;90.00;;;;;;5075985;28;19940;-87
2023/01/17 11:19:50;;;;;;;;;;;7.10;90.20;;;;;;5075388;28;20117;-87
2023/01/17 11:22:16;;;;;;;;;;;7.10;90.40;;;;;;5075922;28;19941;-87
2023/01/17 11:24:52;;;;;;;;;;;7.10;90.30;;;;;;5075930;28;19937;-88
2023/01/17 11:27:28;;;;;;;;;;;7.00;90.60;;;;;;5057857;28;20316;-87
2023/01/17 11:30:28;;;;;;;;;;;7.00;90.80;;;;;;5075615;28;19942;-88
2023/01/17 11:32:57;;;;;;;;;;;7.10;91.10;;;;;;5061244;28;19943;-87
2023/01/17 11:35:33;;;;;;;;;;;7.20;90.80;;;;;;5075735;28;19943;-87
2023/01/17 11:38:13;;;;;;;;;;;7.30;90.40;;;;;;5075738;28;19991;-87
2023/01/17 11:40:40;;;;;;;;;;;7.40;90.30;;;;;;5075083;28;20321;-87
2023/01/17 11:43:24;;;;;;;;;;;7.40;90.00;;;;;;5075652;28;19938;-87
2023/01/17 11:46:13;;;;;;;;;;;7.50;89.70;;;;;;5075614;28;19990;-87
2023/01/17 11:48:39;;;;;;;;;;;7.40;89.60;;;;;;5075536;28;20032;-87
2023/01/17 11:51:16;;;;;;;;;;;7.20;90.10;;;;;;5075268;28;19995;-88
2023/01/17 11:53:45;;;;;;;;;;;7.20;90.30;;;;;;5075359;28;19978;-87
2023/01/17 11:56:19;;;;;;;;;;;7.20;90.60;;;;;;5075238;28;19964;-88
2023/01/17 11:58:46;;;;;;;;;;;7.10;90.70;;;;;;5074994;28;19940;-87
2023/01/17 12:01:19;;;;;;;;;;;7.10;90.60;;;;;;5075031;28;20388;-87
2023/01/17 12:03:54;;;;;;;;;;;7.10;90.80;;;;;;5075231;28;20310;-88
2023/01/17 12:06:32;;;;;;;;;;;7.10;90.70;;;;;;5075218;28;19960;-87
2023/01/17 12:09:06;;;;;;;;;;;7.30;90.30;;;;;;5075138;28;19964;-87
2023/01/17 12:14:35;;;;;;;;;;;7.30;89.40;;;;;;5074828;28;20035;-87
2023/01/17 12:17:00;;;;;;;;;;;7.20;89.30;;;;;;5074928;28;19950;-87
2023/01/17 12:19:32;;;;;;;;;;;7.10;89.10;;;;;;5073368;28;19953;-88
2023/01/17 12:22:14;;;;;;;;;;;7.10;89.40;;;;;;5074207;28;19944;-87
2023/01/17 12:24:49;;;;;;;;;;;7.00;88.80;;;;;;5074462;28;19934;-88
2023/01/17 12:27:29;;;;;;;;;;;6.90;88.80;;;;;;5073808;28;19946;-88
2023/01/17 12:30:10;;;;;;;;;;;6.90;88.80;;;;;;5071114;28;19938;-87
2023/01/17 12:32:54;;;;;;;;;;;7.00;88.70;;;;;;5071217;28;19955;-87
2023/01/17 12:35:24;;;;;;;;;;;6.90;89.00;;;;;;5071632;28;19947;-87
2023/01/17 12:37:54;;;;;;;;;;;7.00;89.00;;;;;;5072307;28;20577;-87
2023/01/17 12:40:34;;;;;;;;;;;7.00;88.30;;;;;;5073763;28;20412;-88
2023/01/17 12:43:02;;;;;;;;;;;7.10;87.80;;;;;;5073520;28;20422;-88
2023/01/17 12:45:31;;;;;;;;;;;7.00;87.70;;;;;;5071261;28;19952;-87
2023/01/17 12:47:59;;;;;;;;;;;7.00;87.30;;;;;;5067582;28;19967;-87
2023/01/17 12:50:34;;;;;;;;;;;6.90;87.90;;;;;;5067661;28;19946;-88
2023/01/17 12:53:03;;;;;;;;;;;6.80;88.10;;;;;;5063160;28;20443;-87
2023/01/17 12:55:46;;;;;;;;;;;6.80;88.10;;;;;;5068585;28;19943;-88
2023/01/17 12:58:15;;;;;;;;;;;6.90;88.00;;;;;;5065150;28;19954;-88
2023/01/17 13:00:42;;;;;;;;;;;6.90;87.50;;;;;;5068275;28;20017;-88
2023/01/17 13:03:14;;;;;;;;;;;6.90;87.70;;;;;;5070298;28;19947;-88
2023/01/17 13:05:47;;;;;;;;;;;6.90;87.40;;;;;;5069781;28;19937;-87
2023/01/17 13:08:19;;;;;;;;;;;6.80;87.40;;;;;;5070448;28;20021;-87
2023/01/17 13:10:50;;;;;;;;;;;6.90;87.60;;;;;;5066179;28;19978;-87
2023/01/17 13:13:24;;;;;;;;;;;6.90;87.40;;;;;;5061231;28;19973;-87
2023/01/17 13:15:53;;;;;;;;;;;6.90;87.30;;;;;;5069188;28;19952;-88
2023/01/17 13:18:24;;;;;;;;;;;7.00;87.30;;;;;;5053988;28;19945;-87
2023/01/17 13:20:56;;;;;;;;;;;6.90;86.90;;;;;;5068779;28;19949;-88
2023/01/17 13:23:32;;;;;;;;;;;6.90;87.50;;;;;;5066356;28;19938;-88
2023/01/17 13:25:59;;;;;;;;;;;6.90;87.70;;;;;;5068317;28;19946;-88
2023/01/17 13:28:24;;;;;;;;;;;6.80;87.60;;;;;;5071136;28;19952;-87
2023/01/17 13:31:05;;;;;;;;;;;6.80;87.40;;;;;;5053476;28;19938;-88
2023/01/17 13:33:45;;;;;;;;;;;6.70;87.40;;;;;;5068944;28;19951;-87
2023/01/17 13:36:13;;;;;;;;;;;6.80;87.30;;;;;;5066333;28;19964;-88
2023/01/17 13:38:53;;;;;;;;;;;6.90;87.20;;;;;;5062627;28;19966;-87
2023/01/17 13:41:38;;;;;;;;;;;7.00;86.90;;;;;;5070000;28;19935;-88
2023/01/17 13:44:23;;;;;;;;;;;7.10;86.70;;;;;;5069202;28;19935;-87
2023/01/17 13:47:06;;;;;;;;;;;7.00;86.60;;;;;;5066247;28;20047;-87
2023/01/17 13:49:32;;;;;;;;;;;7.10;86.30;;;;;;5068452;28;19951;-88
2023/01/17 13:52:09;;;;;;;;;;;7.30;85.90;;;;;;5067549;28;19942;-88
2023/01/17 13:54:45;;;;;;;;;;;7.10;86.40;;;;;;5046897;28;19955;-87
2023/01/17 13:57:28;;;;;;;;;;;7.00;86.50;;;;;;5067118;28;19956;-87
2023/01/17 13:59:57;;;;;;;;;;;6.90;86.90;;;;;;5068140;28;19987;-88
2023/01/17 14:02:32;;;;;;;;;;;6.90;87.30;;;;;;5060844;28;20368;-88
2023/01/17 14:05:16;;;;;;;;;;;6.90;87.50;;;;;;5066383;28;20424;-88
2023/01/17 14:07:44;;;;;;;;;;;6.90;87.30;;;;;;5064261;28;19999;-88
2023/01/17 14:10:31;;;;;;;;;;;6.90;87.00;;;;;;5068639;28;19950;-88
2023/01/17 14:12:57;;;;;;;;;;;7.00;87.10;;;;;;5062550;28;20420;-88
2023/01/17 14:15:27;;;;;;;;;;;7.10;86.30;;;;;;5065197;28;20351;-87
2023/01/17 14:17:57;;;;;;;;;;;7.10;85.90;;;;;;5071327;28;19942;-88
2023/01/17 14:20:26;;;;;;;;;;;7.20;86.20;;;;;;5064124;28;19961;-87
2023/01/17 14:22:56;;;;;;;;;;;7.20;85.80;;;;;;5070152;28;19944;-88
2023/01/17 14:25:24;;;;;;;;;;;7.40;85.80;;;;;;5071405;28;19995;-88
2023/01/17 14:27:52;;;;;;;;;;;7.60;85.00;;;;;;5069208;28;19949;-87
2023/01/17 14:30:21;;;;;;;;;;;7.60;84.50;;;;;;5073803;28;20059;-88
2023/01/17 14:33:07;;;;;;;;;;;7.60;84.30;;;;;;5074676;28;20059;-87
2023/01/17 14:35:40;;;;;;;;;;;7.60;84.00;;;;;;5070030;28;20314;-88
2023/01/17 14:38:17;;;;;;;;;;;7.60;84.40;;;;;;5075047;28;20425;-88
2023/01/17 14:40:48;;;;;;;;;;;7.50;83.80;;;;;;5072626;28;19978;-87
2023/01/17 14:43:17;;;;;;;;;;;7.40;84.20;;;;;;5056993;28;19941;-88
2023/01/17 14:45:42;;;;;;;;;;;7.50;84.20;;;;;;5073452;28;20448;-88
2023/01/17 14:48:15;;;;;;;;;;;7.40;84.20;;;;;;5074076;28;19949;-87
2023/01/17 14:50:42;;;;;;;;;;;7.40;83.70;;;;;;5055872;28;19958;-87
2023/01/17 14:53:10;;;;;;;;;;;7.50;83.70;;;;;;5070540;28;20416;-88
2023/01/17 14:55:37;;;;;;;;;;;7.50;83.50;;;;;;5077293;28;19950;-88
2023/01/17 14:58:02;;;;;;;;;;;7.60;82.50;;;;;;5061588;28;20000;-88
2023/01/17 15:00:28;;;;;;;;;;;7.70;82.20;;;;;;5070904;28;19958;-87
2023/01/17 15:02:55;;;;;;;;;;;7.70;82.70;;;;;;5075094;28;20399;-88
2023/01/17 15:05:23;;;;;;;;;;;7.70;82.20;;;;;;5072350;28;19943;-87
2023/01/17 15:07:51;;;;;;;;;;;7.60;82.70;;;;;;5076223;28;19942;-87
2023/01/17 15:10:22;;;;;;;;;;;7.50;83.00;;;;;;5072240;28;19945;-88
2023/01/17 15:12:48;;;;;;;;;;;7.40;83.70;;;;;;5068319;28;19950;-87
2023/01/17 15:15:31;;;;;;;;;;;7.40;83.90;;;;;;5073743;28;20404;-87
2023/01/17 15:18:15;;;;;;;;;;;7.30;83.90;;;;;;5073256;28;19947;-88
2023/01/17 15:20:42;;;;;;;;;;;7.40;83.50;;;;;;5072224;28;20035;-88
2023/01/17 15:23:17;;;;;;;;;;;7.50;83.40;;;;;;5075492;28;19984;-88
2023/01/17 15:25:43;;;;;;;;;;;7.50;83.70;;;;;;5067025;28;19941;-88
2023/01/17 15:28:11;;;;;;;;;;;7.40;84.30;;;;;;5074894;28;20036;-88
2023/01/17 15:30:36;;;;;;;;;;;7.40;83.40;;;;;;5073916;28;19949;-88
2023/01/17 15:33:02;;;;;;;;;;;7.40;83.70;;;;;;5070579;28;19949;-88
2023/01/17 15:35:28;;;;;;;;;;;7.50;82.80;;;;;;5068866;28;19949;-87
2023/01/17 15:37:55;;;;;;;;;;;7.30;83.50;;;;;;5063545;28;19955;-88
2023/01/17 15:40:22;;;;;;;;;;;7.00;84.20;;;;;;5064683;28;19966;-87
2023/01/17 15:42:50;;;;;;;;;;;7.00;84.90;;;;;;5070895;28;19941;-87
2023/01/17 15:45:18;;;;;;;;;;;6.90;85.00;;;;;;5068171;28;19954;-87
2023/01/17 15:47:44;;;;;;;;;;;6.80;85.50;;;;;;5072864;28;20031;-88
2023/01/17 15:50:19;;;;;;;;;;;6.70;85.90;;;;;;5070135;28;20482;-88
2023/01/17 15:52:48;;;;;;;;;;;6.60;86.60;;;;;;5068265;28;20007;-88
2023/01/17 15:55:20;;;;;;;;;;;6.70;86.80;;;;;;5067311;28;19942;-89
2023/01/17 15:57:49;;;;;;;;;;;6.90;86.50;;;;;;5070937;28;19948;-88
2023/01/17 16:00:14;;;;;;;;;;;7.00;86.10;;;;;;5073167;28;19954;-88
2023/01/17 16:02:44;;;;;;;;;;;7.20;85.50;;;;;;5068755;28;19956;-89